sensor_id;sensor_type;location;lat;lon;timestamp;P1;durP1;ratioP1;P2;durP2;ratioP2
5125;SDS011;63008;53.112;8.896;2023-07-31T00:01:41;6.20;;;2.70;;
5125;SDS011;63008;53.112;8.896;2023-07-31T00:03:42;13.40;;;2.93;;
5125;SDS011;63008;53.112;8.896;2023-07-31T00:05:43;9.93;;;2.80;;
5125;SDS011;63008;53.112;8.896;2023-07-31T00:07:44;10.53;;;3.00;;
5125;SDS011;63008;53.112;8.896;2023-07-31T00:09:45;7.03;;;3.23;;
5125;SDS011;63008;53.112;8.896;2023-07-31T00:11:46;8.47;;;2.90;;
5125;SDS011;63008;53.112;8.896;2023-07-31T00:13:47;19.57;;;2.63;;
5125;SDS011;63008;53.112;8.896;2023-07-31T00:15:48;2.63;;;2.43;;
5125;SDS011;63008;53.112;8.896;2023-07-31T00:17:48;6.63;;;2.20;;
5125;SDS011;63008;53.112;8.896;2023-07-31T00:19:49;6.23;;;3.10;;
5125;SDS011;63008;53.112;8.896;2023-07-31T00:21:51;4.60;;;2.30;;
5125;SDS011;63008;53.112;8.896;2023-07-31T00:23:52;4.17;;;2.30;;
5125;SDS011;63008;53.112;8.896;2023-07-31T00:25:53;5.33;;;2.63;;
5125;SDS011;63008;53.112;8.896;2023-07-31T00:27:54;7.43;;;3.47;;
5125;SDS011;63008;53.112;8.896;2023-07-31T00:29:55;7.20;;;2.87;;
5125;SDS011;63008;53.112;8.896;2023-07-31T00:31:56;5.37;;;2.67;;
5125;SDS011;63008;53.112;8.896;2023-07-31T00:33:57;7.33;;;2.20;;
5125;SDS011;63008;53.112;8.896;2023-07-31T00:35:58;8.23;;;2.50;;
5125;SDS011;63008;53.112;8.896;2023-07-31T00:37:58;4.30;;;1.90;;
5125;SDS011;63008;53.112;8.896;2023-07-31T00:39:59;4.07;;;2.37;;
5125;SDS011;63008;53.112;8.896;2023-07-31T00:42:01;4.03;;;2.43;;
5125;SDS011;63008;53.112;8.896;2023-07-31T00:44:02;4.70;;;2.47;;
5125;SDS011;63008;53.112;8.896;2023-07-31T00:46:03;5.33;;;2.27;;
5125;SDS011;63008;53.112;8.896;2023-07-31T00:48:04;4.47;;;2.30;;
5125;SDS011;63008;53.112;8.896;2023-07-31T00:50:09;6.83;;;2.97;;
5125;SDS011;63008;53.112;8.896;2023-07-31T00:52:10;7.90;;;2.67;;
5125;SDS011;63008;53.112;8.896;2023-07-31T00:54:11;7.03;;;2.20;;
5125;SDS011;63008;53.112;8.896;2023-07-31T00:56:12;7.33;;;3.20;;
5125;SDS011;63008;53.112;8.896;2023-07-31T00:58:13;4.90;;;2.57;;
5125;SDS011;63008;53.112;8.896;2023-07-31T01:00:14;6.47;;;2.63;;
5125;SDS011;63008;53.112;8.896;2023-07-31T01:02:15;8.90;;;2.50;;
5125;SDS011;63008;53.112;8.896;2023-07-31T01:04:17;4.83;;;2.53;;
5125;SDS011;63008;53.112;8.896;2023-07-31T01:06:31;7.00;;;2.47;;
5125;SDS011;63008;53.112;8.896;2023-07-31T01:08:41;5.60;;;2.97;;
5125;SDS011;63008;53.112;8.896;2023-07-31T01:10:50;4.60;;;2.57;;
5125;SDS011;63008;53.112;8.896;2023-07-31T01:12:56;6.03;;;3.30;;
5125;SDS011;63008;53.112;8.896;2023-07-31T01:15:02;5.00;;;2.90;;
5125;SDS011;63008;53.112;8.896;2023-07-31T01:17:06;2.70;;;2.30;;
5125;SDS011;63008;53.112;8.896;2023-07-31T01:19:07;6.37;;;2.77;;
5125;SDS011;63008;53.112;8.896;2023-07-31T01:23:51;6.90;;;2.93;;
5125;SDS011;63008;53.112;8.896;2023-07-31T01:26:16;4.20;;;2.53;;
5125;SDS011;63008;53.112;8.896;2023-07-31T01:31:07;9.67;;;2.70;;
5125;SDS011;63008;53.112;8.896;2023-07-31T01:33:11;4.33;;;2.20;;
5125;SDS011;63008;53.112;8.896;2023-07-31T01:35:12;5.30;;;2.67;;
5125;SDS011;63008;53.112;8.896;2023-07-31T01:37:13;2.20;;;2.00;;
5125;SDS011;63008;53.112;8.896;2023-07-31T01:39:14;4.53;;;2.67;;
5125;SDS011;63008;53.112;8.896;2023-07-31T01:41:16;6.23;;;2.40;;
5125;SDS011;63008;53.112;8.896;2023-07-31T01:43:18;5.43;;;2.13;;
5125;SDS011;63008;53.112;8.896;2023-07-31T01:45:20;2.53;;;2.03;;
5125;SDS011;63008;53.112;8.896;2023-07-31T01:47:22;2.20;;;2.10;;
5125;SDS011;63008;53.112;8.896;2023-07-31T01:49:24;3.77;;;1.83;;
5125;SDS011;63008;53.112;8.896;2023-07-31T01:51:25;2.17;;;1.80;;
5125;SDS011;63008;53.112;8.896;2023-07-31T01:53:26;4.30;;;2.70;;
5125;SDS011;63008;53.112;8.896;2023-07-31T01:55:27;3.53;;;2.30;;
5125;SDS011;63008;53.112;8.896;2023-07-31T01:57:28;2.87;;;2.17;;
5125;SDS011;63008;53.112;8.896;2023-07-31T01:59:28;4.07;;;2.33;;
5125;SDS011;63008;53.112;8.896;2023-07-31T02:01:29;8.70;;;2.37;;
5125;SDS011;63008;53.112;8.896;2023-07-31T02:03:30;3.50;;;2.20;;
5125;SDS011;63008;53.112;8.896;2023-07-31T02:05:31;3.03;;;2.80;;
5125;SDS011;63008;53.112;8.896;2023-07-31T02:07:32;3.10;;;2.90;;
5125;SDS011;63008;53.112;8.896;2023-07-31T02:09:33;5.03;;;2.47;;
5125;SDS011;63008;53.112;8.896;2023-07-31T02:11:34;5.83;;;2.90;;
5125;SDS011;63008;53.112;8.896;2023-07-31T02:13:35;6.33;;;2.97;;
5125;SDS011;63008;53.112;8.896;2023-07-31T02:15:36;11.63;;;2.53;;
5125;SDS011;63008;53.112;8.896;2023-07-31T02:17:37;3.60;;;2.80;;
5125;SDS011;63008;53.112;8.896;2023-07-31T02:19:38;3.30;;;2.87;;
5125;SDS011;63008;53.112;8.896;2023-07-31T02:21:39;7.57;;;3.10;;
5125;SDS011;63008;53.112;8.896;2023-07-31T02:23:40;7.20;;;3.20;;
5125;SDS011;63008;53.112;8.896;2023-07-31T02:25:41;3.40;;;3.10;;
5125;SDS011;63008;53.112;8.896;2023-07-31T02:27:42;4.03;;;3.43;;
5125;SDS011;63008;53.112;8.896;2023-07-31T02:29:43;3.80;;;3.50;;
5125;SDS011;63008;53.112;8.896;2023-07-31T02:31:44;5.60;;;3.80;;
5125;SDS011;63008;53.112;8.896;2023-07-31T02:33:45;4.97;;;3.47;;
5125;SDS011;63008;53.112;8.896;2023-07-31T02:35:46;5.90;;;4.10;;
5125;SDS011;63008;53.112;8.896;2023-07-31T02:37:47;4.20;;;3.87;;
5125;SDS011;63008;53.112;8.896;2023-07-31T02:39:48;9.97;;;4.23;;
5125;SDS011;63008;53.112;8.896;2023-07-31T02:41:49;6.17;;;4.40;;
5125;SDS011;63008;53.112;8.896;2023-07-31T02:43:50;5.60;;;4.30;;
5125;SDS011;63008;53.112;8.896;2023-07-31T02:45:54;8.90;;;4.40;;
5125;SDS011;63008;53.112;8.896;2023-07-31T02:47:55;9.30;;;4.60;;
5125;SDS011;63008;53.112;8.896;2023-07-31T02:49:56;8.87;;;4.60;;
5125;SDS011;63008;53.112;8.896;2023-07-31T02:51:57;6.13;;;4.40;;
5125;SDS011;63008;53.112;8.896;2023-07-31T02:53:58;9.23;;;4.73;;
5125;SDS011;63008;53.112;8.896;2023-07-31T02:55:59;5.77;;;4.80;;
5125;SDS011;63008;53.112;8.896;2023-07-31T02:58:00;8.00;;;4.27;;
5125;SDS011;63008;53.112;8.896;2023-07-31T03:00:01;5.20;;;4.70;;
5125;SDS011;63008;53.112;8.896;2023-07-31T03:02:03;7.73;;;4.70;;
5125;SDS011;63008;53.112;8.896;2023-07-31T03:04:04;8.40;;;5.00;;
5125;SDS011;63008;53.112;8.896;2023-07-31T03:06:05;6.63;;;4.40;;
5125;SDS011;63008;53.112;8.896;2023-07-31T03:08:06;10.13;;;4.83;;
5125;SDS011;63008;53.112;8.896;2023-07-31T03:10:07;7.00;;;5.50;;
5125;SDS011;63008;53.112;8.896;2023-07-31T03:12:09;9.10;;;5.57;;
5125;SDS011;63008;53.112;8.896;2023-07-31T03:14:10;6.17;;;5.50;;
5125;SDS011;63008;53.112;8.896;2023-07-31T03:16:11;8.40;;;5.43;;
5125;SDS011;63008;53.112;8.896;2023-07-31T03:18:12;7.43;;;5.07;;
5125;SDS011;63008;53.112;8.896;2023-07-31T03:20:12;11.80;;;4.97;;
5125;SDS011;63008;53.112;8.896;2023-07-31T03:22:13;7.90;;;4.83;;
5125;SDS011;63008;53.112;8.896;2023-07-31T03:24:14;5.10;;;4.70;;
5125;SDS011;63008;53.112;8.896;2023-07-31T03:26:15;5.70;;;5.03;;
5125;SDS011;63008;53.112;8.896;2023-07-31T03:28:16;5.30;;;4.83;;
5125;SDS011;63008;53.112;8.896;2023-07-31T03:30:17;9.73;;;5.43;;
5125;SDS011;63008;53.112;8.896;2023-07-31T03:32:18;6.60;;;5.20;;
5125;SDS011;63008;53.112;8.896;2023-07-31T03:34:19;7.57;;;6.17;;
5125;SDS011;63008;53.112;8.896;2023-07-31T03:36:20;10.40;;;4.77;;
5125;SDS011;63008;53.112;8.896;2023-07-31T03:38:21;4.33;;;3.97;;
5125;SDS011;63008;53.112;8.896;2023-07-31T03:40:23;5.93;;;5.33;;
5125;SDS011;63008;53.112;8.896;2023-07-31T03:42:24;6.70;;;5.10;;
5125;SDS011;63008;53.112;8.896;2023-07-31T03:44:25;7.90;;;4.97;;
5125;SDS011;63008;53.112;8.896;2023-07-31T03:46:26;5.83;;;4.40;;
5125;SDS011;63008;53.112;8.896;2023-07-31T03:48:27;5.20;;;4.10;;
5125;SDS011;63008;53.112;8.896;2023-07-31T03:50:28;6.60;;;4.83;;
5125;SDS011;63008;53.112;8.896;2023-07-31T03:52:29;4.73;;;4.43;;
5125;SDS011;63008;53.112;8.896;2023-07-31T03:54:30;5.00;;;4.50;;
5125;SDS011;63008;53.112;8.896;2023-07-31T03:56:31;4.93;;;4.33;;
5125;SDS011;63008;53.112;8.896;2023-07-31T03:58:31;9.53;;;5.30;;
5125;SDS011;63008;53.112;8.896;2023-07-31T04:00:32;4.67;;;4.27;;
5125;SDS011;63008;53.112;8.896;2023-07-31T04:02:33;5.97;;;5.30;;
5125;SDS011;63008;53.112;8.896;2023-07-31T04:04:34;5.70;;;5.20;;
5125;SDS011;63008;53.112;8.896;2023-07-31T04:06:35;5.77;;;5.37;;
5125;SDS011;63008;53.112;8.896;2023-07-31T04:08:36;6.10;;;5.50;;
5125;SDS011;63008;53.112;8.896;2023-07-31T04:10:37;9.43;;;5.20;;
5125;SDS011;63008;53.112;8.896;2023-07-31T04:12:38;5.63;;;5.13;;
5125;SDS011;63008;53.112;8.896;2023-07-31T04:14:39;7.73;;;5.60;;
5125;SDS011;63008;53.112;8.896;2023-07-31T04:16:40;6.90;;;4.90;;
5125;SDS011;63008;53.112;8.896;2023-07-31T04:18:41;5.13;;;4.60;;
5125;SDS011;63008;53.112;8.896;2023-07-31T04:20:42;10.40;;;5.63;;
5125;SDS011;63008;53.112;8.896;2023-07-31T04:22:43;5.10;;;4.70;;
5125;SDS011;63008;53.112;8.896;2023-07-31T04:24:44;6.03;;;5.43;;
5125;SDS011;63008;53.112;8.896;2023-07-31T04:26:45;9.50;;;5.60;;
5125;SDS011;63008;53.112;8.896;2023-07-31T04:28:46;6.67;;;6.07;;
5125;SDS011;63008;53.112;8.896;2023-07-31T04:30:47;6.00;;;5.47;;
5125;SDS011;63008;53.112;8.896;2023-07-31T04:32:48;6.47;;;5.87;;
5125;SDS011;63008;53.112;8.896;2023-07-31T04:34:49;7.60;;;5.30;;
5125;SDS011;63008;53.112;8.896;2023-07-31T04:36:50;5.83;;;5.20;;
5125;SDS011;63008;53.112;8.896;2023-07-31T04:38:51;5.93;;;5.30;;
5125;SDS011;63008;53.112;8.896;2023-07-31T04:40:52;5.50;;;5.10;;
5125;SDS011;63008;53.112;8.896;2023-07-31T04:42:53;6.40;;;4.80;;
5125;SDS011;63008;53.112;8.896;2023-07-31T04:44:54;4.43;;;4.03;;
5125;SDS011;63008;53.112;8.896;2023-07-31T04:46:55;4.73;;;4.33;;
5125;SDS011;63008;53.112;8.896;2023-07-31T04:48:56;4.90;;;4.50;;
5125;SDS011;63008;53.112;8.896;2023-07-31T04:50:57;5.30;;;4.80;;
5125;SDS011;63008;53.112;8.896;2023-07-31T04:52:58;4.77;;;4.47;;
5125;SDS011;63008;53.112;8.896;2023-07-31T04:54:59;4.70;;;4.40;;
5125;SDS011;63008;53.112;8.896;2023-07-31T04:57:00;4.70;;;4.30;;
5125;SDS011;63008;53.112;8.896;2023-07-31T04:59:01;4.63;;;4.20;;
5125;SDS011;63008;53.112;8.896;2023-07-31T05:01:02;4.87;;;4.57;;
5125;SDS011;63008;53.112;8.896;2023-07-31T05:03:03;4.80;;;4.30;;
5125;SDS011;63008;53.112;8.896;2023-07-31T05:05:04;4.23;;;3.93;;
5125;SDS011;63008;53.112;8.896;2023-07-31T05:07:05;4.10;;;3.67;;
5125;SDS011;63008;53.112;8.896;2023-07-31T05:09:06;3.77;;;3.57;;
5125;SDS011;63008;53.112;8.896;2023-07-31T05:11:07;4.47;;;4.10;;
5125;SDS011;63008;53.112;8.896;2023-07-31T05:13:08;4.00;;;3.70;;
5125;SDS011;63008;53.112;8.896;2023-07-31T05:15:09;4.00;;;3.80;;
5125;SDS011;63008;53.112;8.896;2023-07-31T05:17:10;3.53;;;3.20;;
5125;SDS011;63008;53.112;8.896;2023-07-31T05:19:11;3.00;;;2.80;;
5125;SDS011;63008;53.112;8.896;2023-07-31T05:21:12;3.97;;;3.73;;
5125;SDS011;63008;53.112;8.896;2023-07-31T05:23:13;4.43;;;4.13;;
5125;SDS011;63008;53.112;8.896;2023-07-31T05:25:14;3.60;;;3.00;;
5125;SDS011;63008;53.112;8.896;2023-07-31T05:27:15;2.90;;;2.77;;
5125;SDS011;63008;53.112;8.896;2023-07-31T05:29:19;2.90;;;2.70;;
5125;SDS011;63008;53.112;8.896;2023-07-31T05:31:19;3.10;;;2.90;;
5125;SDS011;63008;53.112;8.896;2023-07-31T05:33:22;2.40;;;2.30;;
5125;SDS011;63008;53.112;8.896;2023-07-31T05:35:23;2.40;;;2.20;;
5125;SDS011;63008;53.112;8.896;2023-07-31T05:37:24;2.27;;;2.10;;
5125;SDS011;63008;53.112;8.896;2023-07-31T05:39:25;2.40;;;2.30;;
5125;SDS011;63008;53.112;8.896;2023-07-31T05:41:26;2.30;;;2.10;;
5125;SDS011;63008;53.112;8.896;2023-07-31T05:43:27;2.27;;;2.17;;
5125;SDS011;63008;53.112;8.896;2023-07-31T05:45:28;2.40;;;2.20;;
5125;SDS011;63008;53.112;8.896;2023-07-31T05:47:29;2.93;;;2.37;;
5125;SDS011;63008;53.112;8.896;2023-07-31T05:49:30;3.67;;;2.17;;
5125;SDS011;63008;53.112;8.896;2023-07-31T05:51:31;4.00;;;2.00;;
5125;SDS011;63008;53.112;8.896;2023-07-31T05:53:32;2.27;;;2.17;;
5125;SDS011;63008;53.112;8.896;2023-07-31T05:55:33;2.33;;;2.23;;
5125;SDS011;63008;53.112;8.896;2023-07-31T05:57:34;2.30;;;2.10;;
5125;SDS011;63008;53.112;8.896;2023-07-31T05:59:35;3.23;;;2.07;;
5125;SDS011;63008;53.112;8.896;2023-07-31T06:01:36;2.10;;;1.60;;
5125;SDS011;63008;53.112;8.896;2023-07-31T06:03:37;1.67;;;1.57;;
5125;SDS011;63008;53.112;8.896;2023-07-31T06:05:38;2.73;;;1.47;;
5125;SDS011;63008;53.112;8.896;2023-07-31T06:07:39;1.47;;;1.47;;
5125;SDS011;63008;53.112;8.896;2023-07-31T06:09:40;1.87;;;1.77;;
5125;SDS011;63008;53.112;8.896;2023-07-31T06:11:41;1.90;;;1.80;;
5125;SDS011;63008;53.112;8.896;2023-07-31T06:13:42;2.93;;;1.60;;
5125;SDS011;63008;53.112;8.896;2023-07-31T06:15:45;2.30;;;2.10;;
5125;SDS011;63008;53.112;8.896;2023-07-31T06:17:46;1.93;;;1.83;;
5125;SDS011;63008;53.112;8.896;2023-07-31T06:19:47;6.50;;;2.30;;
5125;SDS011;63008;53.112;8.896;2023-07-31T06:21:48;1.90;;;1.80;;
5125;SDS011;63008;53.112;8.896;2023-07-31T06:23:49;1.97;;;1.57;;
5125;SDS011;63008;53.112;8.896;2023-07-31T06:25:50;3.70;;;1.50;;
5125;SDS011;63008;53.112;8.896;2023-07-31T06:27:50;2.13;;;1.77;;
5125;SDS011;63008;53.112;8.896;2023-07-31T06:29:51;5.07;;;1.57;;
5125;SDS011;63008;53.112;8.896;2023-07-31T06:31:52;1.77;;;1.67;;
5125;SDS011;63008;53.112;8.896;2023-07-31T06:33:53;4.30;;;1.83;;
5125;SDS011;63008;53.112;8.896;2023-07-31T06:35:54;1.93;;;1.80;;
5125;SDS011;63008;53.112;8.896;2023-07-31T06:37:55;2.10;;;2.00;;
5125;SDS011;63008;53.112;8.896;2023-07-31T06:39:56;1.80;;;1.70;;
5125;SDS011;63008;53.112;8.896;2023-07-31T06:41:57;6.10;;;2.40;;
5125;SDS011;63008;53.112;8.896;2023-07-31T06:43:58;1.90;;;1.60;;
5125;SDS011;63008;53.112;8.896;2023-07-31T06:46:04;2.53;;;1.50;;
5125;SDS011;63008;53.112;8.896;2023-07-31T06:48:06;3.03;;;2.20;;
5125;SDS011;63008;53.112;8.896;2023-07-31T06:50:07;1.70;;;1.70;;
5125;SDS011;63008;53.112;8.896;2023-07-31T06:52:08;3.30;;;3.10;;
5125;SDS011;63008;53.112;8.896;2023-07-31T06:54:10;3.20;;;2.87;;
5125;SDS011;63008;53.112;8.896;2023-07-31T06:56:11;2.77;;;2.30;;
5125;SDS011;63008;53.112;8.896;2023-07-31T06:58:12;12.43;;;2.13;;
5125;SDS011;63008;53.112;8.896;2023-07-31T07:00:13;8.00;;;3.10;;
5125;SDS011;63008;53.112;8.896;2023-07-31T07:02:15;1.90;;;1.80;;
5125;SDS011;63008;53.112;8.896;2023-07-31T07:04:16;2.17;;;2.00;;
5125;SDS011;63008;53.112;8.896;2023-07-31T07:06:17;2.70;;;2.50;;
5125;SDS011;63008;53.112;8.896;2023-07-31T07:08:18;3.00;;;2.00;;
5125;SDS011;63008;53.112;8.896;2023-07-31T07:10:19;2.00;;;1.90;;
5125;SDS011;63008;53.112;8.896;2023-07-31T07:12:20;12.67;;;2.77;;
5125;SDS011;63008;53.112;8.896;2023-07-31T07:14:21;3.00;;;1.93;;
5125;SDS011;63008;53.112;8.896;2023-07-31T07:16:22;2.40;;;2.30;;
5125;SDS011;63008;53.112;8.896;2023-07-31T07:18:23;2.80;;;2.00;;
5125;SDS011;63008;53.112;8.896;2023-07-31T07:20:24;2.83;;;2.13;;
5125;SDS011;63008;53.112;8.896;2023-07-31T07:22:26;5.17;;;1.90;;
5125;SDS011;63008;53.112;8.896;2023-07-31T07:24:28;1.90;;;1.80;;
5125;SDS011;63008;53.112;8.896;2023-07-31T07:26:29;4.00;;;3.00;;
5125;SDS011;63008;53.112;8.896;2023-07-31T07:28:30;5.90;;;2.70;;
5125;SDS011;63008;53.112;8.896;2023-07-31T07:30:31;2.43;;;2.27;;
5125;SDS011;63008;53.112;8.896;2023-07-31T07:32:32;4.07;;;2.00;;
5125;SDS011;63008;53.112;8.896;2023-07-31T07:34:33;2.50;;;2.00;;
5125;SDS011;63008;53.112;8.896;2023-07-31T07:36:34;6.57;;;5.30;;
5125;SDS011;63008;53.112;8.896;2023-07-31T07:38:35;4.43;;;2.57;;
5125;SDS011;63008;53.112;8.896;2023-07-31T07:40:39;2.30;;;2.10;;
5125;SDS011;63008;53.112;8.896;2023-07-31T07:42:40;3.50;;;2.03;;
5125;SDS011;63008;53.112;8.896;2023-07-31T07:44:41;2.80;;;2.60;;
5125;SDS011;63008;53.112;8.896;2023-07-31T07:46:43;3.40;;;3.20;;
5125;SDS011;63008;53.112;8.896;2023-07-31T07:48:44;5.13;;;3.13;;
5125;SDS011;63008;53.112;8.896;2023-07-31T07:50:45;7.37;;;3.90;;
5125;SDS011;63008;53.112;8.896;2023-07-31T07:52:45;9.63;;;5.00;;
5125;SDS011;63008;53.112;8.896;2023-07-31T07:54:46;6.10;;;4.27;;
5125;SDS011;63008;53.112;8.896;2023-07-31T07:56:47;8.20;;;5.20;;
5125;SDS011;63008;53.112;8.896;2023-07-31T07:58:49;5.43;;;4.93;;
5125;SDS011;63008;53.112;8.896;2023-07-31T08:00:51;10.23;;;5.30;;
5125;SDS011;63008;53.112;8.896;2023-07-31T08:02:52;11.03;;;6.80;;
5125;SDS011;63008;53.112;8.896;2023-07-31T08:04:53;15.50;;;6.30;;
5125;SDS011;63008;53.112;8.896;2023-07-31T08:06:54;16.63;;;7.40;;
5125;SDS011;63008;53.112;8.896;2023-07-31T08:08:55;13.50;;;7.80;;
5125;SDS011;63008;53.112;8.896;2023-07-31T08:10:56;15.70;;;7.93;;
5125;SDS011;63008;53.112;8.896;2023-07-31T08:12:57;18.43;;;8.50;;
5125;SDS011;63008;53.112;8.896;2023-07-31T08:14:58;16.43;;;9.00;;
5125;SDS011;63008;53.112;8.896;2023-07-31T08:17:00;21.00;;;10.00;;
5125;SDS011;63008;53.112;8.896;2023-07-31T08:19:02;22.83;;;9.57;;
5125;SDS011;63008;53.112;8.896;2023-07-31T08:21:03;21.33;;;10.60;;
5125;SDS011;63008;53.112;8.896;2023-07-31T08:23:04;28.10;;;10.50;;
5125;SDS011;63008;53.112;8.896;2023-07-31T08:25:05;30.60;;;11.77;;
5125;SDS011;63008;53.112;8.896;2023-07-31T08:27:07;23.00;;;11.93;;
5125;SDS011;63008;53.112;8.896;2023-07-31T08:29:08;28.37;;;12.17;;
5125;SDS011;63008;53.112;8.896;2023-07-31T08:31:09;23.20;;;11.10;;
5125;SDS011;63008;53.112;8.896;2023-07-31T08:33:11;27.97;;;12.67;;
5125;SDS011;63008;53.112;8.896;2023-07-31T08:35:12;23.47;;;11.93;;
5125;SDS011;63008;53.112;8.896;2023-07-31T08:37:13;24.07;;;12.03;;
5125;SDS011;63008;53.112;8.896;2023-07-31T08:39:14;30.63;;;13.20;;
5125;SDS011;63008;53.112;8.896;2023-07-31T08:41:15;24.60;;;12.00;;
5125;SDS011;63008;53.112;8.896;2023-07-31T08:43:18;24.03;;;12.03;;
5125;SDS011;63008;53.112;8.896;2023-07-31T08:45:20;37.40;;;13.07;;
5125;SDS011;63008;53.112;8.896;2023-07-31T08:47:21;27.47;;;13.40;;
5125;SDS011;63008;53.112;8.896;2023-07-31T08:49:24;25.33;;;12.70;;
5125;SDS011;63008;53.112;8.896;2023-07-31T08:51:25;27.80;;;13.47;;
5125;SDS011;63008;53.112;8.896;2023-07-31T08:53:26;28.67;;;12.87;;
5125;SDS011;63008;53.112;8.896;2023-07-31T08:55:27;27.53;;;12.73;;
5125;SDS011;63008;53.112;8.896;2023-07-31T08:57:29;35.43;;;13.83;;
5125;SDS011;63008;53.112;8.896;2023-07-31T08:59:31;27.07;;;12.30;;
5125;SDS011;63008;53.112;8.896;2023-07-31T09:01:33;38.67;;;12.70;;
5125;SDS011;63008;53.112;8.896;2023-07-31T09:03:41;23.57;;;12.03;;
5125;SDS011;63008;53.112;8.896;2023-07-31T09:05:45;26.80;;;12.00;;
5125;SDS011;63008;53.112;8.896;2023-07-31T09:07:47;26.57;;;12.07;;
5125;SDS011;63008;53.112;8.896;2023-07-31T09:09:50;23.80;;;11.40;;
5125;SDS011;63008;53.112;8.896;2023-07-31T09:11:51;23.00;;;11.77;;
5125;SDS011;63008;53.112;8.896;2023-07-31T09:13:53;27.30;;;11.53;;
5125;SDS011;63008;53.112;8.896;2023-07-31T09:15:57;31.83;;;12.50;;
5125;SDS011;63008;53.112;8.896;2023-07-31T09:18:02;27.90;;;12.20;;
5125;SDS011;63008;53.112;8.896;2023-07-31T09:22:18;26.63;;;11.47;;
5125;SDS011;63008;53.112;8.896;2023-07-31T09:24:33;19.20;;;10.80;;
5125;SDS011;63008;53.112;8.896;2023-07-31T09:26:35;23.30;;;10.27;;
5125;SDS011;63008;53.112;8.896;2023-07-31T09:28:37;19.70;;;8.30;;
5125;SDS011;63008;53.112;8.896;2023-07-31T09:30:50;18.20;;;9.07;;
5125;SDS011;63008;53.112;8.896;2023-07-31T09:32:59;23.70;;;9.47;;
5125;SDS011;63008;53.112;8.896;2023-07-31T09:35:40;17.30;;;9.30;;
5125;SDS011;63008;53.112;8.896;2023-07-31T09:37:35;24.87;;;10.17;;
5125;SDS011;63008;53.112;8.896;2023-07-31T09:39:46;14.07;;;8.03;;
5125;SDS011;63008;53.112;8.896;2023-07-31T09:41:53;20.37;;;8.53;;
5125;SDS011;63008;53.112;8.896;2023-07-31T09:43:55;21.67;;;7.73;;
5125;SDS011;63008;53.112;8.896;2023-07-31T09:45:56;13.67;;;7.27;;
5125;SDS011;63008;53.112;8.896;2023-07-31T09:47:58;12.80;;;7.37;;
5125;SDS011;63008;53.112;8.896;2023-07-31T09:49:59;15.20;;;7.70;;
5125;SDS011;63008;53.112;8.896;2023-07-31T09:52:00;20.47;;;8.43;;
5125;SDS011;63008;53.112;8.896;2023-07-31T09:54:01;18.30;;;9.50;;
5125;SDS011;63008;53.112;8.896;2023-07-31T09:56:02;12.97;;;8.00;;
5125;SDS011;63008;53.112;8.896;2023-07-31T09:58:03;18.27;;;7.83;;
5125;SDS011;63008;53.112;8.896;2023-07-31T10:00:09;10.30;;;7.67;;
5125;SDS011;63008;53.112;8.896;2023-07-31T10:02:12;13.67;;;7.60;;
5125;SDS011;63008;53.112;8.896;2023-07-31T10:04:16;11.73;;;6.50;;
5125;SDS011;63008;53.112;8.896;2023-07-31T10:06:21;17.53;;;7.50;;
5125;SDS011;63008;53.112;8.896;2023-07-31T10:08:23;10.43;;;6.57;;
5125;SDS011;63008;53.112;8.896;2023-07-31T10:10:30;9.43;;;5.40;;
5125;SDS011;63008;53.112;8.896;2023-07-31T10:12:32;10.03;;;4.80;;
5125;SDS011;63008;53.112;8.896;2023-07-31T10:14:35;9.80;;;4.97;;
5125;SDS011;63008;53.112;8.896;2023-07-31T10:16:37;6.10;;;4.30;;
5125;SDS011;63008;53.112;8.896;2023-07-31T10:18:39;9.40;;;5.03;;
5125;SDS011;63008;53.112;8.896;2023-07-31T10:20:40;12.57;;;5.20;;
5125;SDS011;63008;53.112;8.896;2023-07-31T10:22:45;11.30;;;5.10;;
5125;SDS011;63008;53.112;8.896;2023-07-31T10:24:47;11.57;;;5.33;;
5125;SDS011;63008;53.112;8.896;2023-07-31T10:26:49;13.90;;;5.67;;
5125;SDS011;63008;53.112;8.896;2023-07-31T10:28:52;5.50;;;5.00;;
5125;SDS011;63008;53.112;8.896;2023-07-31T10:30:53;10.17;;;5.73;;
5125;SDS011;63008;53.112;8.896;2023-07-31T10:32:55;12.83;;;5.27;;
5125;SDS011;63008;53.112;8.896;2023-07-31T10:34:57;9.97;;;5.50;;
5125;SDS011;63008;53.112;8.896;2023-07-31T10:39:42;7.53;;;4.40;;
5125;SDS011;63008;53.112;8.896;2023-07-31T10:41:42;13.53;;;5.07;;
5125;SDS011;63008;53.112;8.896;2023-07-31T10:43:45;4.60;;;4.13;;
5125;SDS011;63008;53.112;8.896;2023-07-31T10:45:47;4.57;;;4.17;;
5125;SDS011;63008;53.112;8.896;2023-07-31T10:47:49;4.07;;;3.50;;
5125;SDS011;63008;53.112;8.896;2023-07-31T10:49:50;7.33;;;3.20;;
5125;SDS011;63008;53.112;8.896;2023-07-31T10:51:51;7.13;;;3.80;;
5125;SDS011;63008;53.112;8.896;2023-07-31T10:54:09;3.63;;;3.33;;
5125;SDS011;63008;53.112;8.896;2023-07-31T10:56:14;3.53;;;3.00;;
5125;SDS011;63008;53.112;8.896;2023-07-31T10:58:20;3.57;;;3.23;;
5125;SDS011;63008;53.112;8.896;2023-07-31T11:00:28;4.33;;;3.40;;
5125;SDS011;63008;53.112;8.896;2023-07-31T11:02:29;2.73;;;2.53;;
5125;SDS011;63008;53.112;8.896;2023-07-31T11:04:34;3.07;;;2.83;;
5125;SDS011;63008;53.112;8.896;2023-07-31T11:06:34;2.20;;;2.10;;
5125;SDS011;63008;53.112;8.896;2023-07-31T11:08:47;3.23;;;2.40;;
5125;SDS011;63008;53.112;8.896;2023-07-31T11:13:03;3.00;;;1.70;;
5125;SDS011;63008;53.112;8.896;2023-07-31T11:15:05;5.03;;;2.50;;
5125;SDS011;63008;53.112;8.896;2023-07-31T11:17:07;2.80;;;2.60;;
5125;SDS011;63008;53.112;8.896;2023-07-31T11:19:08;3.87;;;2.60;;
5125;SDS011;63008;53.112;8.896;2023-07-31T11:21:13;6.27;;;2.40;;
5125;SDS011;63008;53.112;8.896;2023-07-31T11:23:16;1.90;;;1.77;;
5125;SDS011;63008;53.112;8.896;2023-07-31T11:25:18;1.90;;;1.80;;
5125;SDS011;63008;53.112;8.896;2023-07-31T11:27:19;2.10;;;1.90;;
5125;SDS011;63008;53.112;8.896;2023-07-31T11:29:20;1.50;;;1.40;;
5125;SDS011;63008;53.112;8.896;2023-07-31T11:31:21;1.30;;;1.20;;
5125;SDS011;63008;53.112;8.896;2023-07-31T11:33:22;2.53;;;1.40;;
5125;SDS011;63008;53.112;8.896;2023-07-31T11:35:23;1.83;;;1.20;;
5125;SDS011;63008;53.112;8.896;2023-07-31T11:37:25;3.73;;;0.97;;
5125;SDS011;63008;53.112;8.896;2023-07-31T11:39:39;1.20;;;1.10;;
5125;SDS011;63008;53.112;8.896;2023-07-31T11:41:40;1.20;;;1.20;;
5125;SDS011;63008;53.112;8.896;2023-07-31T11:43:42;1.40;;;1.40;;
5125;SDS011;63008;53.112;8.896;2023-07-31T11:45:49;0.90;;;0.90;;
5125;SDS011;63008;53.112;8.896;2023-07-31T11:47:51;1.57;;;0.80;;
5125;SDS011;63008;53.112;8.896;2023-07-31T11:49:52;1.00;;;1.00;;
5125;SDS011;63008;53.112;8.896;2023-07-31T11:51:54;2.30;;;1.17;;
5125;SDS011;63008;53.112;8.896;2023-07-31T11:53:58;1.10;;;1.00;;
5125;SDS011;63008;53.112;8.896;2023-07-31T11:56:02;1.37;;;0.97;;
5125;SDS011;63008;53.112;8.896;2023-07-31T11:58:05;1.10;;;1.10;;
5125;SDS011;63008;53.112;8.896;2023-07-31T12:00:06;1.53;;;0.80;;
5125;SDS011;63008;53.112;8.896;2023-07-31T12:02:11;0.90;;;0.90;;
5125;SDS011;63008;53.112;8.896;2023-07-31T12:04:12;1.67;;;0.87;;
5125;SDS011;63008;53.112;8.896;2023-07-31T12:06:13;0.87;;;0.87;;
5125;SDS011;63008;53.112;8.896;2023-07-31T12:08:14;0.80;;;0.70;;
5125;SDS011;63008;53.112;8.896;2023-07-31T12:10:23;1.63;;;0.90;;
5125;SDS011;63008;53.112;8.896;2023-07-31T12:12:25;0.80;;;0.80;;
5125;SDS011;63008;53.112;8.896;2023-07-31T12:14:27;0.80;;;0.80;;
5125;SDS011;63008;53.112;8.896;2023-07-31T12:16:32;1.67;;;1.00;;
5125;SDS011;63008;53.112;8.896;2023-07-31T12:18:33;1.40;;;0.80;;
5125;SDS011;63008;53.112;8.896;2023-07-31T12:20:39;0.90;;;0.90;;
5125;SDS011;63008;53.112;8.896;2023-07-31T12:22:42;0.97;;;0.97;;
5125;SDS011;63008;53.112;8.896;2023-07-31T12:24:43;1.63;;;1.20;;
5125;SDS011;63008;53.112;8.896;2023-07-31T12:26:48;0.80;;;0.80;;
5125;SDS011;63008;53.112;8.896;2023-07-31T12:28:50;0.80;;;0.80;;
5125;SDS011;63008;53.112;8.896;2023-07-31T12:30:51;1.07;;;1.07;;
5125;SDS011;63008;53.112;8.896;2023-07-31T12:32:52;4.03;;;3.73;;
5125;SDS011;63008;53.112;8.896;2023-07-31T12:34:53;2.30;;;2.20;;
5125;SDS011;63008;53.112;8.896;2023-07-31T12:36:54;1.00;;;1.00;;